Flight Track Log - Related Links

Times and Time Zones

All times are in EDT time to prevent confusion due to time zone crossing. See the SWA487 flight status page for this flight to view local times or setup timezone preferences in your user account.

Time Position Orientation Groundspeed Altitude Reporting Facility
EDT Latitude Longitude Course Direction KTS MPH feet Rate Location/Type
Fri 07:11:12 AM 29.9950 -90.2917 329° Northwest 175 201 500  Level Houston Center
Fri 07:12:17 AM 30.0392 -90.3222 332° Northwest 193 222 2,300 2,048 Climbing Houston Center
Fri 07:13:18 AM 30.0958 -90.3575 331° Northwest 209 241 4,800 2,950 Climbing Houston Center
Fri 07:14:17 AM 30.1608 -90.4000 329° Northwest 238 274 8,200 3,378 Climbing Houston Center
Fri 07:15:17 AM 30.2281 -90.4472 330° Northwest 266 306 11,500 2,300 Climbing Houston Center
Fri 07:16:17 AM 30.3058 -90.4992 330° Northwest 294 338 12,800 2,000 Climbing Houston Center
Fri 07:17:17 AM 30.3942 -90.5583 309° West 333 383 15,500 2,550 Climbing Houston Center
Fri 07:18:17 AM 30.4594 -90.6517 305° West 356 410 17,900 2,450 Climbing Houston Center
Fri 07:19:17 AM 30.5269 -90.7617 305° West 368 423 20,400 2,100 Climbing Houston Center
Fri 07:20:17 AM 30.5883 -90.8650 308° West 386 444 22,100 1,800 Climbing Houston Center
Fri 07:21:17 AM 30.6597 -90.9731 310° West 399 459 24,000 1,950 Climbing Houston Center
Fri 07:22:17 AM 30.7333 -91.0764 312° West 411 473 26,000 1,900 Climbing Houston Center
Fri 07:23:17 AM 30.8108 -91.1775 309° West 416 479 27,800 1,950 Climbing Houston Center
Fri 07:24:17 AM 30.8864 -91.2861 309° West 426 490 29,900 2,350 Climbing Houston Center
Fri 07:25:17 AM 30.9556 -91.3850 310° West 421 484 32,500 1,850 Climbing Houston Center
Fri 07:26:17 AM 31.0267 -91.4842 311° West 409 471 33,600 1,339 Climbing Houston Center
Fri 07:27:18 AM 31.0978 -91.5786 310° West 399 459 35,200 1,200 Climbing Houston Center
Fri 07:28:17 AM 31.1664 -91.6756 310° West 394 453 36,000 403 Climbing Houston Center
Fri 07:29:17 AM 31.2333 -91.7703 310° West 394 453 36,000  Level Houston Center
Fri 07:30:18 AM 31.3042 -91.8675 310° West 394 453 36,000  Level Houston Center
Fri 07:31:17 AM 31.3728 -91.9625 309° West 394 453 36,000  Level Houston Center
Fri 07:32:18 AM 31.4350 -92.0528 310° West 394 453 36,000  Level Houston Center
Fri 07:33:17 AM 31.5036 -92.1503 309° West 394 453 36,000  Level Houston Center
Fri 07:34:17 AM 31.5719 -92.2481 310° West 394 453 36,000  Level Houston Center
Fri 07:36:21 AM 31.7147 -92.4489 309° West 416 479 36,000  Level Fort Worth Center
Fri 07:37:21 AM 31.7833 -92.5478 309° West 406 467 36,000  Level Fort Worth Center
Fri 07:38:21 AM 31.8583 -92.6564 310° West 396 456 36,000  Level Fort Worth Center
Fri 07:39:21 AM 31.9267 -92.7531 309° West 396 456 36,000  Level Fort Worth Center
Fri 07:40:21 AM 31.9950 -92.8525 310° West 396 456 36,000  Level Fort Worth Center
Fri 07:41:21 AM 32.0633 -92.9497 309° West 396 456 36,000  Level Fort Worth Center
Fri 07:42:21 AM 32.1314 -93.0492 313° West 391 450 36,000  Level Fort Worth Center
Fri 07:43:21 AM 32.1928 -93.1272 308° West 384 442 36,000  Level Fort Worth Center
Fri 07:44:21 AM 32.2608 -93.2297 308° West 384 442 36,000  Level Fort Worth Center
Fri 07:45:21 AM 32.3289 -93.3322 309° West 390 449 36,000  Level Fort Worth Center
Fri 07:46:21 AM 32.3967 -93.4300 308° West 390 449 36,000  Level Fort Worth Center
Fri 07:47:21 AM 32.4625 -93.5306 309° West 390 449 36,000  Level Fort Worth Center
Fri 07:48:21 AM 32.5322 -93.6311 308° West 390 449 36,000  Level Fort Worth Center
Fri 07:49:21 AM 32.5981 -93.7319 309° West 390 449 36,000  Level Fort Worth Center
Fri 07:50:21 AM 32.6656 -93.8328 309° West 390 449 36,000  Level Fort Worth Center
Fri 07:51:21 AM 32.7353 -93.9336 308° West 390 449 36,000  Level Fort Worth Center
Fri 07:52:21 AM 32.8092 -94.0444 309° West 390 449 36,000  Level Fort Worth Center
Fri 07:53:21 AM 32.8786 -94.1483 308° West 390 449 36,000  Level Fort Worth Center
Fri 07:54:21 AM 32.9439 -94.2497 309° West 390 449 36,000  Level Fort Worth Center
Fri 07:55:21 AM 33.0133 -94.3539 310° West 390 449 36,000  Level Fort Worth Center
Fri 07:56:21 AM 33.0803 -94.4508 307° West 395 455 36,000  Level Fort Worth Center
Fri 07:57:21 AM 33.1453 -94.5528 309° West 390 449 36,000  Level Fort Worth Center
Fri 07:58:21 AM 33.2122 -94.6500 308° West 385 443 36,000  Level Fort Worth Center
Fri 07:59:21 AM 33.2792 -94.7522 309° West 390 449 36,000  Level Fort Worth Center
Fri 08:00:21 AM 33.3436 -94.8472 308° West 384 442 36,000  Level Fort Worth Center
Fri 08:01:21 AM 33.4106 -94.9497 308° West 384 442 36,000  Level Fort Worth Center
Fri 08:02:21 AM 33.4750 -95.0503 309° West 384 442 36,000  Level Fort Worth Center
Fri 08:03:21 AM 33.5417 -95.1506 307° West 389 448 36,000  Level Fort Worth Center
Fri 08:04:21 AM 33.6058 -95.2536 309° West 389 448 36,000  Level Fort Worth Center
Fri 08:05:21 AM 33.6744 -95.3544 308° West 389 448 36,000  Level Fort Worth Center
Fri 08:06:21 AM 33.7408 -95.4553 306° West 389 448 36,000  Level Fort Worth Center
Fri 08:07:21 AM 33.8028 -95.5564 310° West 384 442 36,000  Level Fort Worth Center
Fri 08:08:21 AM 33.8647 -95.6450 309° West 392 451 36,000  Level Fort Worth Center
Fri 08:09:21 AM 33.9328 -95.7464 307° West 392 451 36,000  Level Fort Worth Center
Fri 08:10:21 AM 33.9967 -95.8478 307° West 387 445 36,000  Level Fort Worth Center
Fri 08:11:21 AM 34.0625 -95.9519 304° West 387 445 36,000  Level Fort Worth Center
Fri 08:12:21 AM 34.1244 -96.0636 308° West 387 445 36,000  Level Fort Worth Center
Fri 08:13:21 AM 34.1900 -96.1656 307° West 381 438 36,000  Level Fort Worth Center
Fri 08:14:21 AM 34.2558 -96.2703 308° West 381 438 36,000  Level Fort Worth Center
Fri 08:15:21 AM 34.3150 -96.3625 307° West 381 438 36,000  Level Fort Worth Center
Fri 08:16:21 AM 34.3806 -96.4672 308° West 387 445 36,000  Level Fort Worth Center
Fri 08:17:21 AM 34.4481 -96.5725 306° West 392 451 36,000  Level Fort Worth Center
Fri 08:18:21 AM 34.5114 -96.6775 308° West 392 451 36,000  Level Fort Worth Center
Fri 08:19:21 AM 34.5786 -96.7806 306° West 392 451 36,000  Level Fort Worth Center
Fri 08:20:21 AM 34.6439 -96.8886 308° West 392 451 36,000  Level Fort Worth Center
Fri 08:21:21 AM 34.7172 -97.0042 306° West 392 451 36,000  Level Fort Worth Center
Fri 08:22:21 AM 34.7800 -97.1078 308° West 392 451 36,000  Level Fort Worth Center
Fri 08:23:21 AM 34.8469 -97.2136 307° West 392 451 36,000  Level Fort Worth Center
Fri 08:24:21 AM 34.9139 -97.3225 306° West 392 451 36,000  Level Fort Worth Center
Fri 08:25:21 AM 34.9767 -97.4286 306° West 392 451 36,000  Level Fort Worth Center
Fri 08:26:21 AM 35.0350 -97.5250 308° West 392 451 36,000  Level Fort Worth Center
Fri 08:27:21 AM 35.1058 -97.6344 310° West 397 457 36,000  Level Fort Worth Center
Fri 08:28:21 AM 35.1764 -97.7361 309° West 397 457 36,000  Level Fort Worth Center
Fri 08:29:21 AM 35.2469 -97.8431 308° West 397 457 36,000  Level Fort Worth Center
Fri 08:30:21 AM 35.3194 -97.9581 315° West 397 457 36,000  Level Fort Worth Center
Fri 08:31:21 AM 35.3983 -98.0553 316° Northwest 397 457 36,000  Level Fort Worth Center
Fri 08:32:21 AM 35.4792 -98.1528 308° West 397 457 36,000  Level Fort Worth Center
Fri 08:33:21 AM 35.5453 -98.2556 308° West 397 457 36,000  Level Fort Worth Center
Fri 08:35:36 AM 35.6917 -98.4853 308° West 403 464 36,000  Level Kansas City Center
Fri 08:36:36 AM 35.7611 -98.5939 307° West 403 464 36,000  Level Kansas City Center
Fri 08:37:36 AM 35.8361 -98.7156 308° West 403 464 36,000  Level Kansas City Center
Fri 08:38:36 AM 35.9072 -98.8269 309° West 403 464 36,000  Level Kansas City Center
Fri 08:39:36 AM 35.9783 -98.9361 307° West 403 464 36,000  Level Kansas City Center
Fri 08:40:36 AM 36.0492 -99.0508 306° West 416 479 36,000  Level Kansas City Center
Fri 08:41:36 AM 36.1158 -99.1625 308° West 430 495 36,000  Level Kansas City Center
Fri 08:42:36 AM 36.1883 -99.2775 308° West 430 495 36,000  Level Kansas City Center
Fri 08:43:36 AM 36.2608 -99.3928 307° West 430 495 36,000  Level Kansas City Center
Fri 08:44:36 AM 36.3311 -99.5081 307° West 425 489 36,000  Level Kansas City Center
Fri 08:45:36 AM 36.4014 -99.6261 307° West 425 489 36,000  Level Kansas City Center
Fri 08:46:36 AM 36.4714 -99.7417 308° West 425 489 36,000  Level Kansas City Center
Fri 08:47:36 AM 36.5433 -99.8578 308° West 425 489 36,000  Level Kansas City Center
Fri 08:48:36 AM 36.6153 -99.9742 307° West 425 489 36,000  Level Kansas City Center
Fri 08:49:36 AM 36.6850 -100.0903 308° West 425 489 36,000  Level Kansas City Center
Fri 08:50:36 AM 36.7625 -100.2153 306° West 425 489 36,000  Level Kansas City Center
Fri 08:51:36 AM 36.8261 -100.3239 308° West 425 489 36,000  Level Kansas City Center
Fri 08:52:36 AM 36.9056 -100.4519 306° West 425 489 36,000  Level Kansas City Center
Fri 08:53:36 AM 36.9744 -100.5717 307° West 425 489 36,000  Level Kansas City Center
Fri 08:54:36 AM 37.0436 -100.6867 307° West 430 495 36,000  Level Kansas City Center
Fri 08:55:36 AM 37.1089 -100.7961 307° West 430 495 36,000  Level Kansas City Center
Fri 08:56:36 AM 37.1856 -100.9250 306° West 424 488 36,000  Level Kansas City Center
Fri 08:57:36 AM 37.2542 -101.0431 306° West 424 488 36,000  Level Kansas City Center
Fri 08:58:36 AM 37.3228 -101.1611 306° West 424 488 36,000  Level Kansas City Center
Fri 08:59:36 AM 37.3856 -101.2686 307° West 424 488 36,000  Level Kansas City Center
Fri 09:00:36 AM 37.4542 -101.3847 306° West 424 488 36,000  Level Kansas City Center
Fri 09:02:36 AM 37.5958 -101.6322 306° West 421 484 36,000  Level Denver Center
Fri 09:03:36 AM 37.6567 -101.7383 307° West 416 479 36,000  Level Denver Center
Fri 09:04:36 AM 37.7261 -101.8569 306° West 416 479 36,000  Level Denver Center
Fri 09:05:36 AM 37.8003 -101.9864 305° West 416 479 36,000  Level Denver Center
Fri 09:06:36 AM 37.8672 -102.1056 306° West 421 484 36,000  Level Denver Center
Fri 09:07:36 AM 37.9278 -102.2125 307° West 421 484 36,000 -450 Level Denver Center
Fri 09:08:36 AM 37.9967 -102.3297 304° West 421 484 35,100 -1,000 Descending Denver Center
Fri 09:09:36 AM 38.0681 -102.4625 307° West 415 478 34,000 -1,050 Descending Denver Center
Fri 09:10:36 AM 38.1369 -102.5803 305° West 415 478 33,000 -1,000 Descending Denver Center
Fri 09:11:36 AM 38.1944 -102.6853 311° West 415 478 32,000 -950 Descending Denver Center
Fri 09:12:36 AM 38.2667 -102.7900 311° West 405 466 31,100 -1,000 Descending Denver Center
Fri 09:13:36 AM 38.3456 -102.9075 310° West 405 466 30,000 -1,000 Descending Denver Center
Fri 09:14:36 AM 38.4156 -103.0128 312° West 392 451 29,100 -950 Descending Denver Center
Fri 09:15:36 AM 38.4786 -103.1025 309° West 387 445 28,100 -950 Descending Denver Center
Fri 09:16:36 AM 38.5444 -103.2081 313° West 380 437 27,200 -550 Descending Denver Center
Fri 09:17:36 AM 38.6203 -103.3136 309° West 374 430 27,000 -100 Descending Denver Center
Fri 09:18:36 AM 38.6833 -103.4119 309° West 369 425 27,000  Level Denver Center
Fri 09:19:36 AM 38.7422 -103.5050 309° West 376 433 27,000  Level Denver Center
Fri 09:20:36 AM 38.8053 -103.6036 318° Northwest 362 417 27,000 -50 Level Denver Center
Fri 09:21:36 AM 38.8825 -103.6939 319° Northwest 353 406 26,900 -1,100 Descending Denver Center
Fri 09:22:36 AM 38.9594 -103.7789 319° Northwest 353 406 24,800 -1,900 Descending Denver Center
Fri 09:23:36 AM 39.0303 -103.8592 318° Northwest 348 400 23,100 -1,800 Descending Denver Center
Fri 09:24:36 AM 39.0967 -103.9369 319° Northwest 333 383 21,200 -1,950 Descending Denver Center
Fri 09:25:36 AM 39.1650 -104.0147 333° Northwest 328 377 19,200 -1,850 Descending Denver Center
Fri 09:26:36 AM 39.2347 -104.0606 342° North 316 364 17,500 -1,950 Descending Denver Center
Fri 09:27:36 AM 39.3231 -104.0978 341° North 322 371 15,300 -2,000 Descending Denver Center
Fri 09:28:36 AM 39.4072 -104.1353 341° North 322 371 13,500 -1,200 Descending Denver Center
Fri 09:29:36 AM 39.4894 -104.1728 341° North 317 365 12,900 -1,050 Descending Denver Center
Fri 09:30:36 AM 39.5672 -104.2078 339° North 306 352 11,400 -1,450 Descending Denver Center
Fri 09:31:36 AM 39.6453 -104.2458 320° Northwest 301 346 10,000 -750 Descending Denver Center
Fri 09:32:36 AM 39.7047 -104.3114 318° Northwest 286 329 9,900 -466 Descending Denver Center
Fri 09:33:32 AM 39.7667 -104.3833 322° Northwest 259 298 9,100 -1,034 Descending Denver TRACON
Fri 09:34:32 AM 39.8167 -104.4333 311° West 237 273 7,900 -1,105 Descending Denver TRACON
Fri 09:35:26 AM 39.8500 -104.4833 311° West 221 254 7,000 -750 Descending Denver TRACON
Fri 09:36:32 AM 39.8833 -104.5333 270° West 152 175 6,400 -600 Descending Denver TRACON
Fri 09:37:26 AM 39.8833 -104.5833 270° West 141 162 5,800 -667 Descending Denver TRACON

Login

Don't have an account? Register now (free) for customized features, flight alerts, and more!